N670MA KISM-
Flight info
| Callsign | N670MA |
|---|---|
| Flight time | N/A |
| Altitude | VFR |
| Route | DEP S |
| Aircraft | C172/L-VGD/C |
Departure
| Time | 2026-05-05 01:43 |
|---|---|
| Airport | Kissimmee Gateway Airport (KISM) |
Arrival
| Time | N/A |
|---|---|
| Airport | - |
| Time | Latitude | Longitude | Altitude | Speed | Heading |
|---|---|---|---|---|---|
| 2026-05-05 01:35 | 28.29197 | -81.44066 | 87 ft | 8 kts | 272° |
| 2026-05-05 01:35 | 28.29265 | -81.44115 | 87 ft | 13 kts | 2° |
| 2026-05-05 01:35 | 28.29334 | -81.44111 | 86 ft | 12 kts | 325° |
| 2026-05-05 01:36 | 28.29421 | -81.44173 | 86 ft | 17 kts | 329° |
| 2026-05-05 01:36 | 28.29510 | -81.44240 | 86 ft | 14 kts | 293° |
| 2026-05-05 01:36 | 28.29515 | -81.44283 | 89 ft | 6 kts | 299° |
| 2026-05-05 01:36 | 28.29541 | -81.44305 | 86 ft | 4 kts | 23° |
| 2026-05-05 01:37 | 28.29548 | -81.44299 | 88 ft | 0 kts | 47° |
| 2026-05-05 01:40 | 28.29549 | -81.44297 | 86 ft | 3 kts | 52° |
| 2026-05-05 01:40 | 28.29573 | -81.44249 | 86 ft | 0 kts | 57° |
| 2026-05-05 01:41 | 28.29573 | -81.44248 | 86 ft | 1 kts | 57° |
| 2026-05-05 01:42 | 28.29603 | -81.44157 | 84 ft | 18 kts | 120° |
| 2026-05-05 01:42 | 28.29423 | -81.44023 | 85 ft | 50 kts | 148° |
| 2026-05-05 01:42 | 28.29045 | -81.43771 | 109 ft | 73 kts | 147° |
| 2026-05-05 01:42 | 28.28604 | -81.43459 | 273 ft | 73 kts | 143° |
| 2026-05-05 01:43 | 28.28159 | -81.43147 | 412 ft | 80 kts | 146° |
| 2026-05-05 01:43 | 28.27616 | -81.43009 | 668 ft | 87 kts | 192° |
| 2026-05-05 01:43 | 28.27009 | -81.43235 | 814 ft | 95 kts | 188° |
| 2026-05-05 01:43 | 28.26346 | -81.43389 | 946 ft | 102 kts | 188° |
| 2026-05-05 01:44 | 28.25634 | -81.43575 | 1075 ft | 107 kts | 187° |
| 2026-05-05 01:44 | 28.24929 | -81.43777 | 1197 ft | 102 kts | 184° |
| 2026-05-05 01:44 | 28.24245 | -81.43975 | 1313 ft | 99 kts | 177° |
| 2026-05-05 01:44 | 28.23755 | -81.43675 | 1429 ft | 77 kts | 117° |
| 2026-05-05 01:45 | 28.23318 | -81.43305 | 1493 ft | 89 kts | 154° |
| 2026-05-05 01:45 | 28.22672 | -81.43146 | 1516 ft | 98 kts | 155° |
| 2026-05-05 01:45 | 28.22043 | -81.42831 | 1501 ft | 99 kts | 135° |
| 2026-05-05 01:45 | 28.21615 | -81.42234 | 1504 ft | 98 kts | 113° |
| 2026-05-05 01:46 | 28.21409 | -81.41499 | 1508 ft | 98 kts | 106° |
| 2026-05-05 01:46 | 28.21205 | -81.40755 | 1509 ft | 99 kts | 106° |
| 2026-05-05 01:46 | 28.20998 | -81.40007 | 1510 ft | 101 kts | 106° |
| 2026-05-05 01:46 | 28.20778 | -81.39229 | 1507 ft | 105 kts | 105° |
| 2026-05-05 01:47 | 28.20550 | -81.38424 | 1501 ft | 109 kts | 109° |
| 2026-05-05 01:47 | 28.19970 | -81.37868 | 1572 ft | 113 kts | 150° |
| 2026-05-05 01:47 | 28.19301 | -81.37541 | 1810 ft | 97 kts | 146° |
| 2026-05-05 01:47 | 28.18989 | -81.37003 | 2026 ft | 79 kts | 106° |
| 2026-05-05 01:48 | 28.18815 | -81.36452 | 2253 ft | 70 kts | 107° |
| 2026-05-05 01:48 | 28.18669 | -81.35968 | 2464 ft | 60 kts | 107° |
| 2026-05-05 01:48 | 28.18513 | -81.35480 | 2504 ft | 73 kts | 108° |
| 2026-05-05 01:48 | 28.18328 | -81.34892 | 2507 ft | 84 kts | 108° |
| 2026-05-05 01:49 | 28.18130 | -81.34239 | 2508 ft | 90 kts | 108° |
| 2026-05-05 01:49 | 28.17926 | -81.33548 | 2503 ft | 95 kts | 107° |
| 2026-05-05 01:49 | 28.17716 | -81.32827 | 2505 ft | 98 kts | 107° |
| 2026-05-05 01:49 | 28.17507 | -81.32085 | 2503 ft | 100 kts | 100° |
| 2026-05-05 01:50 | 28.17653 | -81.31313 | 2499 ft | 102 kts | 89° |
| 2026-05-05 01:50 | 28.17503 | -81.30528 | 2503 ft | 103 kts | 99° |
| 2026-05-05 01:50 | 28.17391 | -81.29723 | 2503 ft | 104 kts | 99° |
| 2026-05-05 01:50 | 28.17280 | -81.28913 | 2504 ft | 104 kts | 99° |
| 2026-05-05 01:51 | 28.17174 | -81.28100 | 2497 ft | 104 kts | 98° |
| 2026-05-05 01:51 | 28.17069 | -81.27284 | 2497 ft | 105 kts | 98° |
| 2026-05-05 01:51 | 28.16966 | -81.26472 | 2498 ft | 105 kts | 98° |
| 2026-05-05 01:51 | 28.16862 | -81.25646 | 2499 ft | 106 kts | 98° |
| 2026-05-05 01:52 | 28.16683 | -81.24834 | 2501 ft | 107 kts | 109° |
| 2026-05-05 01:52 | 28.16449 | -81.24028 | 2501 ft | 108 kts | 107° |
| 2026-05-05 01:52 | 28.16216 | -81.23221 | 2499 ft | 108 kts | 107° |
| 2026-05-05 01:52 | 28.15983 | -81.22417 | 2498 ft | 107 kts | 107° |
| 2026-05-05 01:53 | 28.15753 | -81.21619 | 2497 ft | 106 kts | 107° |
| 2026-05-05 01:53 | 28.15526 | -81.20832 | 2495 ft | 106 kts | 107° |
| 2026-05-05 01:53 | 28.15296 | -81.20033 | 2492 ft | 108 kts | 107° |
| 2026-05-05 01:53 | 28.15060 | -81.19217 | 2494 ft | 110 kts | 107° |
| 2026-05-05 01:54 | 28.14821 | -81.18391 | 2492 ft | 110 kts | 107° |
| 2026-05-05 01:54 | 28.14581 | -81.17561 | 2493 ft | 111 kts | 107° |
| 2026-05-05 01:54 | 28.14339 | -81.16721 | 2495 ft | 113 kts | 107° |
| 2026-05-05 01:54 | 28.14094 | -81.15876 | 2492 ft | 113 kts | 107° |
| 2026-05-05 01:55 | 28.13849 | -81.15026 | 2491 ft | 113 kts | 107° |
| 2026-05-05 01:55 | 28.13604 | -81.14179 | 2491 ft | 113 kts | 107° |
| 2026-05-05 01:55 | 28.13358 | -81.13331 | 2489 ft | 113 kts | 107° |
| 2026-05-05 01:55 | 28.13114 | -81.12486 | 2488 ft | 113 kts | 108° |
| 2026-05-05 01:56 | 28.12870 | -81.11643 | 2483 ft | 112 kts | 107° |
| 2026-05-05 01:56 | 28.12630 | -81.10815 | 2480 ft | 112 kts | 107° |
| 2026-05-05 01:56 | 28.12388 | -81.09979 | 2478 ft | 111 kts | 107° |
| 2026-05-05 01:56 | 28.12147 | -81.09146 | 2478 ft | 111 kts | 107° |
| 2026-05-05 01:57 | 28.11904 | -81.08309 | 2482 ft | 112 kts | 107° |
| 2026-05-05 01:57 | 28.11661 | -81.07471 | 2481 ft | 112 kts | 107° |
| 2026-05-05 01:57 | 28.11418 | -81.06631 | 2480 ft | 113 kts | 107° |
| 2026-05-05 01:57 | 28.11172 | -81.05785 | 2471 ft | 113 kts | 107° |
| 2026-05-05 01:58 | 28.10926 | -81.04939 | 2471 ft | 113 kts | 107° |
| 2026-05-05 01:58 | 28.10679 | -81.04089 | 2472 ft | 113 kts | 107° |
| 2026-05-05 01:58 | 28.10433 | -81.03241 | 2472 ft | 113 kts | 108° |
| 2026-05-05 01:58 | 28.10187 | -81.02395 | 2472 ft | 113 kts | 108° |
| 2026-05-05 01:59 | 28.09946 | -81.01563 | 2471 ft | 113 kts | 107° |
| 2026-05-05 01:59 | 28.09701 | -81.00720 | 2470 ft | 113 kts | 107° |
| 2026-05-05 01:59 | 28.09455 | -80.99876 | 2470 ft | 113 kts | 107° |
| 2026-05-05 01:59 | 28.09210 | -80.99032 | 2471 ft | 113 kts | 107° |
| 2026-05-05 02:00 | 28.08966 | -80.98190 | 2470 ft | 112 kts | 107° |
| 2026-05-05 02:00 | 28.08722 | -80.97353 | 2469 ft | 112 kts | 108° |
| 2026-05-05 02:00 | 28.08478 | -80.96518 | 2469 ft | 112 kts | 107° |
| 2026-05-05 02:00 | 28.08234 | -80.95679 | 2471 ft | 112 kts | 107° |
| 2026-05-05 02:01 | 28.07988 | -80.94836 | 2473 ft | 113 kts | 107° |
| 2026-05-05 02:01 | 28.07826 | -80.94277 | 2473 ft | 113 kts | 107° |
| 2026-05-05 02:01 | 28.07581 | -80.93438 | 2470 ft | 112 kts | 107° |
| 2026-05-05 02:01 | 28.07260 | -80.92335 | 2470 ft | 111 kts | 107° |
| 2026-05-05 02:02 | 28.07018 | -80.91506 | 2469 ft | 111 kts | 107° |
| 2026-05-05 02:02 | 28.06854 | -80.90944 | 2464 ft | 111 kts | 107° |
| 2026-05-05 02:02 | 28.06614 | -80.90120 | 2469 ft | 111 kts | 106° |
| 2026-05-05 02:02 | 28.06373 | -80.89296 | 2469 ft | 110 kts | 106° |
| 2026-05-05 02:03 | 28.06134 | -80.88477 | 2470 ft | 109 kts | 106° |
| 2026-05-05 02:03 | 28.05895 | -80.87659 | 2470 ft | 110 kts | 106° |
| 2026-05-05 02:03 | 28.05655 | -80.86835 | 2471 ft | 111 kts | 106° |
| 2026-05-05 02:03 | 28.05413 | -80.86005 | 2472 ft | 111 kts | 106° |
| 2026-05-05 02:04 | 28.05206 | -80.85168 | 2471 ft | 110 kts | 103° |
| 2026-05-05 02:04 | 28.05011 | -80.84329 | 2472 ft | 110 kts | 103° |
| 2026-05-05 02:04 | 28.04814 | -80.83488 | 2472 ft | 111 kts | 103° |
| 2026-05-05 02:04 | 28.04620 | -80.82656 | 2471 ft | 111 kts | 104° |
| 2026-05-05 02:05 | 28.04424 | -80.81814 | 2468 ft | 110 kts | 104° |
| 2026-05-05 02:05 | 28.04228 | -80.80974 | 2467 ft | 110 kts | 104° |
| 2026-05-05 02:05 | 28.04032 | -80.80137 | 2468 ft | 110 kts | 104° |
| 2026-05-05 02:05 | 28.03826 | -80.79299 | 2469 ft | 111 kts | 108° |
| 2026-05-05 02:06 | 28.03561 | -80.78476 | 2470 ft | 111 kts | 108° |
| 2026-05-05 02:06 | 28.03299 | -80.77651 | 2470 ft | 111 kts | 107° |
| 2026-05-05 02:06 | 28.03040 | -80.76824 | 2470 ft | 111 kts | 107° |
| 2026-05-05 02:06 | 28.02784 | -80.76003 | 2470 ft | 111 kts | 107° |
| 2026-05-05 02:07 | 28.02530 | -80.75181 | 2474 ft | 111 kts | 107° |
| 2026-05-05 02:07 | 28.02278 | -80.74370 | 2474 ft | 111 kts | 107° |
| 2026-05-05 02:07 | 28.02024 | -80.73548 | 2475 ft | 110 kts | 107° |
| 2026-05-05 02:07 | 28.01848 | -80.72712 | 2473 ft | 109 kts | 92° |
| 2026-05-05 02:08 | 28.01812 | -80.71856 | 2473 ft | 109 kts | 93° |
| 2026-05-05 02:08 | 28.01781 | -80.70995 | 2471 ft | 110 kts | 93° |
| 2026-05-05 02:08 | 28.01750 | -80.70127 | 2472 ft | 110 kts | 93° |
| 2026-05-05 02:08 | 28.01714 | -80.69260 | 2474 ft | 111 kts | 93° |
| 2026-05-05 02:09 | 28.01675 | -80.68387 | 2473 ft | 110 kts | 93° |
| 2026-05-05 02:09 | 28.01634 | -80.67534 | 2350 ft | 105 kts | 93° |
| 2026-05-05 02:09 | 28.01599 | -80.66751 | 2208 ft | 95 kts | 93° |
| 2026-05-05 02:09 | 28.01559 | -80.66028 | 2073 ft | 89 kts | 93° |
| 2026-05-05 02:10 | 28.01521 | -80.65342 | 1938 ft | 86 kts | 93° |
| 2026-05-05 02:10 | 28.01481 | -80.64678 | 1807 ft | 84 kts | 93° |
| 2026-05-05 02:10 | 28.01436 | -80.64018 | 1678 ft | 84 kts | 93° |
| 2026-05-05 02:10 | 28.01389 | -80.63360 | 1559 ft | 86 kts | 92° |
| 2026-05-05 02:11 | 28.01337 | -80.62685 | 1431 ft | 87 kts | 94° |
| 2026-05-05 02:11 | 28.01086 | -80.62049 | 1301 ft | 91 kts | 115° |
| 2026-05-05 02:11 | 28.00780 | -80.61411 | 1182 ft | 94 kts | 114° |
| 2026-05-05 02:11 | 28.00462 | -80.60881 | 1084 ft | 100 kts | 133° |
| 2026-05-05 02:12 | 27.99929 | -80.60416 | 1072 ft | 93 kts | 134° |
| 2026-05-05 02:12 | 27.98870 | -80.59715 | 1105 ft | 87 kts | 154° |
| 2026-05-05 02:12 | 27.98288 | -80.59541 | 1061 ft | 86 kts | 156° |
| 2026-05-05 02:13 | 27.97703 | -80.59354 | 1027 ft | 87 kts | 152° |
| 2026-05-05 02:13 | 27.97133 | -80.59172 | 1087 ft | 83 kts | 160° |
| 2026-05-05 02:13 | 27.96602 | -80.59023 | 1022 ft | 74 kts | 153° |
| 2026-05-05 02:13 | 27.96193 | -80.58779 | 871 ft | 63 kts | 113° |
| 2026-05-05 02:14 | 27.96060 | -80.58324 | 685 ft | 61 kts | 98° |
| 2026-05-05 02:14 | 27.95987 | -80.57846 | 519 ft | 62 kts | 93° |
| 2026-05-05 02:14 | 27.95978 | -80.57370 | 288 ft | 63 kts | 88° |
| 2026-05-05 02:14 | 27.95969 | -80.56864 | 157 ft | 69 kts | 88° |
| 2026-05-05 02:15 | 27.95961 | -80.56359 | 36 ft | 51 kts | 89° |
| 2026-05-05 02:15 | 27.95961 | -80.55949 | 39 ft | 66 kts | 91° |
| 2026-05-05 02:15 | 27.95965 | -80.55395 | 168 ft | 72 kts | 88° |
| 2026-05-05 02:15 | 27.95979 | -80.54839 | 330 ft | 70 kts | 88° |
| 2026-05-05 02:16 | 27.96107 | -80.54302 | 445 ft | 72 kts | 46° |
| 2026-05-05 02:16 | 27.96598 | -80.54276 | 607 ft | 80 kts | 351° |
| 2026-05-05 02:16 | 27.97053 | -80.54665 | 717 ft | 94 kts | 291° |
| 2026-05-05 02:16 | 27.97108 | -80.55423 | 820 ft | 103 kts | 272° |
| 2026-05-05 02:17 | 27.97110 | -80.56267 | 935 ft | 111 kts | 274° |
| 2026-05-05 02:17 | 27.97130 | -80.57160 | 1058 ft | 115 kts | 274° |
| 2026-05-05 02:17 | 27.97149 | -80.58055 | 1181 ft | 116 kts | 274° |
| 2026-05-05 02:17 | 27.97173 | -80.58965 | 1309 ft | 116 kts | 274° |
| 2026-05-05 02:18 | 27.97206 | -80.59884 | 1430 ft | 118 kts | 274° |
| 2026-05-05 02:18 | 27.97240 | -80.60820 | 1557 ft | 121 kts | 274° |
| 2026-05-05 02:18 | 27.97282 | -80.61778 | 1686 ft | 123 kts | 275° |
| 2026-05-05 02:18 | 27.97303 | -80.62747 | 1828 ft | 123 kts | 274° |
| 2026-05-05 02:19 | 27.97332 | -80.63718 | 1954 ft | 124 kts | 274° |
| 2026-05-05 02:19 | 27.97367 | -80.64687 | 2076 ft | 123 kts | 276° |
| 2026-05-05 02:19 | 27.97470 | -80.65644 | 2192 ft | 122 kts | 303° |
| 2026-05-05 02:19 | 27.98027 | -80.66312 | 2330 ft | 117 kts | 322° |
| 2026-05-05 02:20 | 27.98606 | -80.66954 | 2458 ft | 116 kts | 323° |
| 2026-05-05 02:20 | 27.99222 | -80.67599 | 2484 ft | 125 kts | 324° |
| 2026-05-05 02:20 | 27.99885 | -80.68272 | 2488 ft | 131 kts | 324° |
| 2026-05-05 02:20 | 28.00407 | -80.69137 | 2482 ft | 139 kts | 292° |
| 2026-05-05 02:21 | 28.00744 | -80.70167 | 2487 ft | 140 kts | 293° |
| 2026-05-05 02:21 | 28.01084 | -80.71204 | 2487 ft | 141 kts | 293° |
| 2026-05-05 02:21 | 28.01421 | -80.72254 | 2487 ft | 142 kts | 293° |
| 2026-05-05 02:21 | 28.01753 | -80.73310 | 2487 ft | 142 kts | 293° |
| 2026-05-05 02:22 | 28.02083 | -80.74368 | 2484 ft | 143 kts | 293° |
| 2026-05-05 02:22 | 28.02415 | -80.75426 | 2484 ft | 143 kts | 293° |
| 2026-05-05 02:22 | 28.02748 | -80.76484 | 2484 ft | 143 kts | 293° |
| 2026-05-05 02:22 | 28.03075 | -80.77528 | 2483 ft | 142 kts | 293° |
| 2026-05-05 02:23 | 28.03403 | -80.78574 | 2480 ft | 140 kts | 293° |
| 2026-05-05 02:23 | 28.03728 | -80.79603 | 2478 ft | 138 kts | 292° |
| 2026-05-05 02:23 | 28.04060 | -80.80623 | 2476 ft | 138 kts | 293° |
| 2026-05-05 02:23 | 28.04394 | -80.81636 | 2475 ft | 137 kts | 293° |
| 2026-05-05 02:24 | 28.04727 | -80.82648 | 2475 ft | 137 kts | 293° |